createdAt,value
2023-01-29T00:02:09.664Z,16.87
2023-01-29T00:04:36.569Z,20.73
2023-01-29T00:07:03.443Z,23.70
2023-01-29T00:09:31.394Z,20.40
2023-01-29T00:11:58.433Z,18.23
2023-01-29T00:14:27.206Z,18.73
2023-01-29T00:16:54.904Z,20.30
2023-01-29T00:19:21.792Z,20.27
2023-01-29T00:21:48.653Z,17.03
2023-01-29T00:24:15.553Z,17.83
2023-01-29T00:26:43.112Z,19.80
2023-01-29T00:29:10.121Z,20.47
2023-01-29T00:31:37.047Z,20.00
2023-01-29T00:34:03.980Z,20.07
2023-01-29T00:36:30.857Z,23.33
2023-01-29T00:39:00.600Z,18.60
2023-01-29T00:41:49.822Z,24.17
2023-01-29T00:44:35.411Z,19.60
2023-01-29T00:47:03.682Z,18.87
2023-01-29T00:49:30.626Z,19.43
2023-01-29T00:52:17.513Z,21.20
2023-01-29T00:54:44.374Z,23.70
2023-01-29T00:57:11.260Z,18.27
2023-01-29T00:59:38.322Z,19.07
2023-01-29T01:02:24.006Z,19.67
2023-01-29T01:04:50.956Z,18.00
2023-01-29T01:07:17.883Z,22.90
2023-01-29T01:10:03.077Z,22.00
2023-01-29T01:12:30.662Z,21.67
2023-01-29T01:14:57.770Z,16.97
2023-01-29T01:17:25.132Z,28.27
2023-01-29T01:19:52.132Z,26.13
2023-01-29T01:22:19.166Z,19.50
2023-01-29T01:24:46.028Z,23.20
2023-01-29T01:27:13.227Z,23.13
2023-01-29T01:29:40.679Z,17.90
2023-01-29T01:32:07.942Z,19.13
2023-01-29T01:34:34.865Z,20.97
2023-01-29T01:37:01.721Z,19.00
2023-01-29T01:39:28.721Z,19.80
2023-01-29T01:41:56.598Z,20.93
2023-01-29T01:44:55.261Z,23.10
2023-01-29T01:47:46.422Z,25.03
2023-01-29T01:50:28.303Z,25.50
2023-01-29T01:53:05.117Z,23.97
2023-01-29T01:55:34.324Z,18.43
2023-01-29T01:58:12.995Z,24.17
2023-01-29T02:00:40.696Z,20.20
2023-01-29T02:03:27.570Z,22.83
2023-01-29T02:06:15.928Z,18.20
2023-01-29T02:09:11.886Z,18.97
2023-01-29T02:11:38.983Z,21.83
2023-01-29T02:14:06.592Z,21.27
2023-01-29T02:16:36.285Z,21.00
2023-01-29T02:19:11.040Z,22.17
2023-01-29T02:22:00.825Z,19.60
2023-01-29T02:25:23.296Z,22.67
2023-01-29T02:28:07.113Z,23.83
2023-01-29T02:31:09.666Z,27.90
2023-01-29T02:34:18.626Z,25.77
2023-01-29T02:37:09.809Z,23.40
2023-01-29T02:40:25.536Z,26.57
2023-01-29T02:43:27.438Z,23.37
2023-01-29T02:46:06.632Z,23.47
2023-01-29T02:48:50.223Z,25.40
2023-01-29T02:51:44.266Z,30.27
2023-01-29T02:54:23.758Z,23.40
2023-01-29T02:57:01.246Z,31.30
2023-01-29T02:59:54.236Z,23.73
2023-01-29T03:02:36.051Z,23.17
2023-01-29T03:05:08.605Z,26.17
2023-01-29T03:07:42.564Z,28.00
2023-01-29T03:10:44.205Z,25.43
2023-01-29T03:13:21.003Z,22.20
2023-01-29T03:16:01.412Z,22.20
2023-01-29T03:18:46.919Z,26.47
2023-01-29T03:21:44.641Z,27.27
2023-01-29T03:24:34.178Z,29.50
2023-01-29T03:27:24.171Z,27.57
2023-01-29T03:30:11.952Z,29.80
2023-01-29T03:32:49.609Z,32.93
2023-01-29T03:35:36.712Z,27.20
2023-01-29T03:38:10.119Z,28.10
2023-01-29T03:40:53.566Z,28.57
2023-01-29T03:43:40.343Z,25.53
2023-01-29T03:46:58.657Z,31.10
2023-01-29T03:50:09.009Z,28.57
2023-01-29T03:52:56.685Z,25.17
2023-01-29T03:55:40.687Z,29.10
2023-01-29T03:58:25.760Z,25.70
2023-01-29T04:01:03.520Z,28.87
2023-01-29T04:04:09.217Z,25.23
2023-01-29T04:06:39.023Z,25.30
2023-01-29T04:09:22.128Z,23.93
2023-01-29T04:12:11.663Z,25.80
2023-01-29T04:14:42.429Z,29.60
2023-01-29T04:17:24.007Z,31.03
2023-01-29T04:20:11.319Z,27.30
2023-01-29T04:22:44.949Z,27.53
2023-01-29T04:25:17.743Z,29.47
2023-01-29T04:28:19.322Z,29.40
2023-01-29T04:31:08.536Z,25.87
2023-01-29T04:33:53.286Z,26.10
2023-01-29T04:37:00.557Z,35.93
2023-01-29T04:39:46.720Z,36.73
2023-01-29T04:42:39.282Z,31.63
2023-01-29T04:45:32.409Z,31.23
2023-01-29T04:48:52.483Z,24.87
2023-01-29T04:51:43.634Z,28.13
2023-01-29T04:54:22.990Z,27.80
2023-01-29T04:57:19.461Z,27.87
2023-01-29T04:59:55.330Z,29.87
2023-01-29T05:02:24.548Z,31.97
2023-01-29T05:04:52.464Z,35.07
2023-01-29T05:07:20.840Z,31.13
2023-01-29T05:09:48.544Z,33.33
2023-01-29T05:12:17.503Z,36.40
2023-01-29T05:14:46.750Z,33.10
2023-01-29T05:17:20.213Z,31.77
2023-01-29T05:19:47.689Z,34.60
2023-01-29T05:22:18.403Z,29.13
2023-01-29T05:24:46.537Z,28.80
2023-01-29T05:27:40.322Z,26.80
2023-01-29T05:30:08.416Z,30.77
2023-01-29T05:32:35.299Z,29.80
2023-01-29T05:35:02.196Z,32.43
2023-01-29T05:37:29.084Z,30.80
2023-01-29T05:39:55.954Z,30.13
2023-01-29T05:42:22.855Z,27.87
2023-01-29T05:44:49.855Z,34.60
2023-01-29T05:47:21.141Z,28.50
2023-01-29T05:49:48.093Z,31.67
2023-01-29T05:52:14.991Z,36.03
2023-01-29T05:54:41.885Z,36.33
2023-01-29T05:57:08.781Z,32.20
2023-01-29T05:59:35.652Z,31.87
2023-01-29T06:02:02.568Z,31.83
2023-01-29T06:04:29.462Z,39.33
2023-01-29T06:06:56.372Z,36.90
2023-01-29T06:09:23.246Z,40.33
2023-01-29T06:11:50.176Z,35.30
2023-01-29T06:14:17.080Z,39.43
2023-01-29T06:16:43.977Z,40.00
2023-01-29T06:19:10.849Z,34.33
2023-01-29T06:21:37.766Z,39.20
2023-01-29T06:24:05.033Z,41.20
2023-01-29T06:26:31.967Z,35.30
2023-01-29T06:28:58.839Z,30.93
2023-01-29T06:31:37.950Z,36.63
2023-01-29T06:34:07.520Z,36.73
2023-01-29T06:36:35.840Z,36.13
2023-01-29T06:39:03.312Z,36.03
2023-01-29T06:41:30.302Z,39.47
2023-01-29T06:43:57.187Z,35.03
2023-01-29T06:46:24.074Z,34.37
2023-01-29T06:48:50.964Z,36.37
2023-01-29T06:51:18.100Z,34.83
2023-01-29T06:53:46.419Z,37.30
2023-01-29T06:56:13.584Z,34.23
2023-01-29T06:58:40.483Z,30.23
2023-01-29T07:01:17.534Z,34.50
2023-01-29T07:03:52.216Z,31.50
2023-01-29T07:06:19.473Z,35.07
2023-01-29T07:08:46.423Z,32.33
2023-01-29T07:11:13.375Z,32.43
2023-01-29T07:13:40.250Z,30.03
2023-01-29T07:16:07.539Z,31.77
2023-01-29T07:18:34.477Z,33.50
2023-01-29T07:21:06.343Z,33.43
2023-01-29T07:23:34.963Z,32.90
2023-01-29T07:26:06.146Z,30.40
2023-01-29T07:28:37.871Z,31.73
2023-01-29T07:31:05.197Z,27.33
2023-01-29T07:33:32.124Z,31.70
2023-01-29T07:35:59.031Z,32.27
2023-01-29T07:38:26.161Z,25.80
2023-01-29T07:40:53.313Z,25.33
2023-01-29T07:43:20.787Z,32.00
2023-01-29T07:45:47.720Z,34.70
2023-01-29T07:48:14.605Z,31.67
2023-01-29T07:50:41.584Z,30.73
2023-01-29T07:53:15.066Z,34.83
2023-01-29T07:55:45.332Z,32.80
2023-01-29T07:58:12.486Z,35.90
2023-01-29T08:00:39.867Z,35.60
2023-01-29T08:03:12.222Z,47.57
2023-01-29T08:05:39.116Z,41.30
2023-01-29T08:08:07.641Z,38.50
2023-01-29T08:10:36.335Z,35.50
2023-01-29T08:13:05.412Z,33.40
2023-01-29T08:15:33.768Z,34.77
2023-01-29T08:18:03.361Z,39.03
2023-01-29T08:20:30.761Z,39.47
2023-01-29T08:23:07.826Z,35.57
2023-01-29T08:25:35.930Z,32.60
2023-01-29T08:28:04.575Z,34.10
2023-01-29T08:30:34.718Z,31.27
2023-01-29T08:33:04.130Z,28.30
2023-01-29T08:35:31.119Z,31.80
2023-01-29T08:38:03.411Z,29.67
2023-01-29T08:40:33.994Z,29.43
2023-01-29T08:43:05.572Z,30.00
2023-01-29T08:45:36.613Z,27.30
2023-01-29T08:48:03.827Z,30.23
2023-01-29T08:50:31.851Z,25.70
2023-01-29T08:52:59.713Z,27.40
2023-01-29T08:55:27.427Z,26.60
2023-01-29T08:57:54.873Z,28.10
2023-01-29T09:00:22.077Z,33.83
2023-01-29T09:02:49.077Z,28.73
2023-01-29T09:05:16.213Z,29.80
2023-01-29T09:07:43.232Z,27.27
2023-01-29T09:10:12.107Z,31.33
2023-01-29T09:12:39.011Z,29.70
2023-01-29T09:15:06.460Z,30.10
2023-01-29T09:17:33.340Z,32.53
2023-01-29T09:20:00.225Z,34.30
2023-01-29T09:22:27.184Z,33.47
2023-01-29T09:24:54.085Z,32.70
2023-01-29T09:27:21.024Z,31.67
2023-01-29T09:29:47.921Z,30.60
2023-01-29T09:32:16.852Z,32.03
2023-01-29T09:34:46.519Z,28.30
2023-01-29T09:37:13.433Z,30.23
2023-01-29T09:39:40.341Z,29.93
2023-01-29T09:42:23.128Z,26.73
2023-01-29T09:45:06.834Z,22.80
2023-01-29T09:47:36.119Z,24.43
2023-01-29T09:50:08.264Z,27.60
2023-01-29T09:52:46.067Z,21.23
2023-01-29T09:55:46.502Z,22.40
2023-01-29T09:58:28.051Z,20.40
2023-01-29T10:01:04.490Z,18.50
2023-01-29T10:03:53.885Z,20.20
2023-01-29T10:06:53.720Z,16.30
2023-01-29T10:10:04.225Z,20.13
2023-01-29T10:12:43.141Z,15.60
2023-01-29T10:15:25.012Z,21.80
2023-01-29T10:18:04.890Z,15.37
2023-01-29T10:20:59.058Z,15.30
2023-01-29T10:23:34.571Z,17.23
2023-01-29T10:26:02.265Z,14.07
2023-01-29T10:28:43.149Z,15.20
2023-01-29T10:31:25.481Z,13.83
2023-01-29T10:34:02.784Z,16.73
2023-01-29T10:36:43.428Z,16.23
2023-01-29T10:39:26.215Z,13.77
2023-01-29T10:42:28.105Z,14.20
2023-01-29T10:45:34.784Z,12.30
2023-01-29T10:48:09.692Z,13.87
2023-01-29T10:50:50.960Z,11.03
2023-01-29T10:53:41.321Z,13.20
2023-01-29T10:56:58.569Z,12.90
2023-01-29T10:59:52.202Z,12.90
2023-01-29T11:02:22.056Z,14.50
2023-01-29T11:04:49.334Z,12.80
2023-01-29T11:07:19.812Z,11.87
2023-01-29T11:10:08.431Z,12.00
2023-01-29T11:12:38.237Z,10.20
2023-01-29T11:15:21.014Z,12.17
2023-01-29T11:18:14.174Z,13.10
2023-01-29T11:20:44.610Z,15.57
2023-01-29T11:23:33.502Z,14.67
2023-01-29T11:26:01.684Z,14.63
2023-01-29T11:28:43.874Z,13.57
2023-01-29T11:31:27.487Z,13.07
2023-01-29T11:34:04.418Z,15.70
2023-01-29T11:36:39.636Z,23.40
2023-01-29T11:39:22.131Z,16.97
2023-01-29T11:41:50.549Z,20.13
2023-01-29T11:44:22.723Z,13.50
2023-01-29T11:46:50.216Z,16.83
2023-01-29T11:49:33.970Z,17.53
2023-01-29T11:52:08.286Z,19.40
2023-01-29T11:54:44.965Z,19.00
2023-01-29T11:57:39.066Z,45.17
2023-01-29T12:00:28.618Z,20.27
2023-01-29T12:03:23.239Z,20.90
2023-01-29T12:06:05.959Z,21.23
2023-01-29T12:08:38.228Z,20.17
2023-01-29T12:11:15.991Z,20.90
2023-01-29T12:13:45.883Z,21.53
2023-01-29T12:16:24.605Z,20.90
2023-01-29T12:19:17.202Z,25.90
2023-01-29T12:21:52.578Z,23.80
2023-01-29T12:24:54.556Z,21.30
2023-01-29T12:27:39.457Z,24.23
2023-01-29T12:30:19.960Z,24.30
2023-01-29T12:33:17.609Z,23.17
2023-01-29T12:35:59.811Z,23.87
2023-01-29T12:38:26.798Z,24.40
2023-01-29T12:41:00.687Z,22.60
2023-01-29T12:43:45.126Z,23.60
2023-01-29T12:46:24.542Z,25.40
2023-01-29T12:48:54.949Z,26.40
2023-01-29T12:51:36.341Z,27.73
2023-01-29T12:54:20.065Z,26.07
2023-01-29T12:56:51.785Z,26.97
2023-01-29T12:59:28.921Z,24.60
2023-01-29T13:02:15.925Z,25.27
2023-01-29T13:04:49.826Z,27.17
2023-01-29T13:07:26.276Z,27.80
2023-01-29T13:10:04.531Z,26.23
2023-01-29T13:12:33.316Z,24.20
2023-01-29T13:15:24.126Z,24.77
2023-01-29T13:18:03.015Z,25.00
2023-01-29T13:20:34.014Z,26.53
2023-01-29T13:23:22.290Z,25.17
2023-01-29T13:25:52.729Z,25.53
2023-01-29T13:28:24.196Z,25.00
2023-01-29T13:31:11.138Z,28.30
2023-01-29T13:33:40.904Z,25.33
2023-01-29T13:36:17.168Z,30.60
2023-01-29T13:38:45.175Z,26.73
2023-01-29T13:41:12.526Z,23.00
2023-01-29T13:43:42.870Z,26.93
2023-01-29T13:46:21.425Z,28.40
2023-01-29T13:48:50.930Z,25.87
2023-01-29T13:51:22.187Z,30.03
2023-01-29T13:53:58.086Z,29.60
2023-01-29T13:56:33.551Z,29.50
2023-01-29T13:59:04.091Z,34.90
2023-01-29T14:01:49.279Z,33.20
2023-01-29T14:04:18.894Z,36.07
2023-01-29T14:06:51.949Z,33.73
2023-01-29T14:09:37.164Z,29.83
2023-01-29T14:12:21.367Z,31.77
2023-01-29T14:14:48.127Z,33.90
2023-01-29T14:17:19.882Z,35.90
2023-01-29T14:19:52.510Z,37.17
2023-01-29T14:22:27.123Z,37.13
2023-01-29T14:25:03.935Z,33.90
2023-01-29T14:27:31.866Z,32.13
2023-01-29T14:30:07.702Z,31.03
2023-01-29T14:32:34.613Z,32.53
2023-01-29T14:35:18.794Z,34.70
2023-01-29T14:37:50.424Z,28.70
2023-01-29T14:40:22.964Z,33.03
2023-01-29T14:43:05.868Z,30.30
2023-01-29T14:45:38.902Z,37.23
2023-01-29T14:48:11.566Z,35.40
2023-01-29T14:50:43.929Z,30.77
2023-01-29T14:53:43.801Z,34.30
2023-01-29T14:56:17.469Z,31.80
2023-01-29T14:58:47.936Z,29.30
2023-01-29T15:01:33.399Z,29.43
2023-01-29T15:04:12.971Z,30.43
2023-01-29T15:06:47.122Z,31.03
2023-01-29T15:09:32.765Z,30.87
2023-01-29T15:12:24.360Z,28.30
2023-01-29T15:15:07.110Z,31.73
2023-01-29T15:17:49.530Z,30.53
2023-01-29T15:20:34.625Z,27.93
2023-01-29T15:23:06.068Z,31.53
2023-01-29T15:25:47.568Z,34.23
2023-01-29T15:28:15.757Z,37.83
2023-01-29T15:30:45.014Z,35.03
2023-01-29T15:33:14.947Z,33.93
2023-01-29T15:35:43.250Z,34.63
2023-01-29T15:38:21.666Z,45.90
2023-01-29T15:41:03.465Z,38.83
2023-01-29T15:43:36.087Z,35.77
2023-01-29T15:46:30.647Z,39.37
2023-01-29T15:49:00.789Z,37.63
2023-01-29T15:51:28.949Z,38.00
2023-01-29T15:54:02.459Z,36.90
2023-01-29T15:56:42.168Z,34.90
2023-01-29T15:59:23.061Z,41.10
2023-01-29T16:01:50.000Z,37.20
2023-01-29T16:04:26.885Z,43.63
2023-01-29T16:06:56.020Z,39.47
2023-01-29T16:09:25.819Z,39.33
2023-01-29T16:11:54.771Z,45.20
2023-01-29T16:14:25.500Z,38.63
2023-01-29T16:16:53.559Z,43.23
2023-01-29T16:19:24.497Z,37.13
2023-01-29T16:22:03.915Z,40.50
2023-01-29T16:24:35.023Z,42.03
2023-01-29T16:27:14.009Z,39.43
2023-01-29T16:29:41.396Z,47.20
2023-01-29T16:32:09.921Z,41.80
2023-01-29T16:34:45.619Z,40.63
2023-01-29T16:37:25.272Z,36.90
2023-01-29T16:39:52.908Z,42.10
2023-01-29T16:42:28.940Z,39.13
2023-01-29T16:45:04.769Z,43.43
2023-01-29T16:47:44.062Z,42.10
2023-01-29T16:50:38.283Z,39.10
2023-01-29T16:53:21.804Z,39.27
2023-01-29T16:55:50.159Z,36.03
2023-01-29T16:58:20.994Z,34.83
2023-01-29T17:00:56.178Z,37.37
2023-01-29T17:03:26.723Z,40.03
2023-01-29T17:05:54.182Z,38.00
2023-01-29T17:08:28.551Z,38.87
2023-01-29T17:10:55.515Z,37.60
2023-01-29T17:13:36.002Z,39.53
2023-01-29T17:16:15.843Z,37.13
2023-01-29T17:18:42.761Z,40.87
2023-01-29T17:21:09.859Z,39.80
2023-01-29T17:23:36.772Z,41.40
2023-01-29T17:26:06.869Z,39.80
2023-01-29T17:28:34.162Z,42.97
2023-01-29T17:31:06.500Z,43.57
2023-01-29T17:33:41.128Z,45.43
2023-01-29T17:36:16.466Z,42.17
2023-01-29T17:38:43.425Z,46.77
2023-01-29T17:41:28.582Z,44.73
2023-01-29T17:43:55.568Z,47.37
2023-01-29T17:46:22.739Z,48.70
2023-01-29T17:48:49.786Z,47.60
2023-01-29T17:51:18.101Z,46.13
2023-01-29T17:53:46.859Z,46.67
2023-01-29T17:56:24.055Z,45.10
2023-01-29T17:58:50.972Z,47.37
2023-01-29T18:01:17.903Z,43.50
2023-01-29T18:03:44.901Z,43.20
2023-01-29T18:06:29.448Z,44.27
2023-01-29T18:08:56.834Z,45.73
2023-01-29T18:11:23.775Z,44.70
2023-01-29T18:13:51.554Z,40.50
2023-01-29T18:16:18.604Z,42.50
2023-01-29T18:18:45.601Z,49.83
2023-01-29T18:21:12.495Z,43.23
2023-01-29T18:23:39.467Z,40.07
2023-01-29T18:26:07.532Z,40.20
2023-01-29T18:28:34.414Z,37.73
2023-01-29T18:31:02.618Z,41.27
2023-01-29T18:33:29.660Z,41.90
2023-01-29T18:35:56.646Z,38.93
2023-01-29T18:38:24.076Z,42.20
2023-01-29T18:40:50.980Z,49.00
2023-01-29T18:43:17.845Z,41.40
2023-01-29T18:45:44.847Z,45.63
2023-01-29T18:48:14.139Z,45.67
2023-01-29T18:50:41.082Z,39.60
2023-01-29T18:53:08.018Z,37.90
2023-01-29T18:55:34.927Z,44.13
2023-01-29T18:58:26.011Z,36.17
2023-01-29T19:00:48.712Z,39.00
2023-01-29T19:03:15.667Z,38.63
2023-01-29T19:05:42.616Z,47.90
2023-01-29T19:08:09.846Z,40.33
2023-01-29T19:10:37.174Z,47.40
2023-01-29T19:13:05.860Z,39.30
2023-01-29T19:15:34.023Z,36.47
2023-01-29T19:18:01.059Z,40.77
2023-01-29T19:20:27.988Z,40.40
2023-01-29T19:22:54.893Z,43.33
2023-01-29T19:25:21.978Z,35.63
2023-01-29T19:27:48.885Z,36.30
2023-01-29T19:30:16.035Z,39.50
2023-01-29T19:32:43.004Z,33.90
2023-01-29T19:35:09.898Z,37.77
2023-01-29T19:37:36.789Z,34.43
2023-01-29T19:40:04.166Z,30.50
2023-01-29T19:42:31.303Z,33.43
2023-01-29T19:44:58.197Z,30.63
2023-01-29T19:47:25.094Z,27.80
2023-01-29T19:49:52.015Z,27.43
2023-01-29T19:52:49.869Z,31.83
2023-01-29T19:55:20.092Z,28.30
2023-01-29T19:57:47.409Z,33.77
2023-01-29T20:00:17.438Z,31.10
2023-01-29T20:02:44.387Z,34.67
2023-01-29T20:05:12.981Z,33.70
2023-01-29T20:07:42.258Z,31.83
2023-01-29T20:10:16.841Z,32.40
2023-01-29T20:12:45.108Z,37.70
2023-01-29T20:15:13.762Z,38.43
2023-01-29T20:17:40.883Z,40.00
2023-01-29T20:20:08.995Z,40.57
2023-01-29T20:22:36.004Z,41.37
2023-01-29T20:25:02.984Z,42.40
2023-01-29T20:27:29.884Z,38.83
2023-01-29T20:29:57.376Z,41.70
2023-01-29T20:32:24.515Z,41.87
2023-01-29T20:34:52.259Z,41.00
2023-01-29T20:37:19.664Z,45.40
2023-01-29T20:39:47.201Z,45.27
2023-01-29T20:42:14.424Z,38.60
2023-01-29T20:44:42.060Z,40.80
2023-01-29T20:47:09.166Z,39.03
2023-01-29T20:49:36.166Z,37.60
2023-01-29T20:52:03.134Z,41.87
2023-01-29T20:54:33.045Z,37.53
2023-01-29T20:57:00.111Z,38.77
2023-01-29T20:59:28.887Z,36.60
2023-01-29T21:01:56.017Z,40.33
2023-01-29T21:04:23.156Z,43.00
2023-01-29T21:06:50.124Z,39.90
2023-01-29T21:09:16.998Z,40.53
2023-01-29T21:11:44.994Z,33.10
2023-01-29T21:14:11.923Z,36.00
2023-01-29T21:16:38.848Z,39.53
2023-01-29T21:19:05.791Z,31.50
2023-01-29T21:21:32.716Z,40.27
2023-01-29T21:23:59.597Z,34.60
2023-01-29T21:26:26.535Z,34.27
2023-01-29T21:28:53.462Z,34.30
2023-01-29T21:31:20.434Z,34.03
2023-01-29T21:33:47.378Z,28.60
2023-01-29T21:36:14.270Z,34.97
2023-01-29T21:38:41.157Z,33.40
2023-01-29T21:41:10.012Z,38.97
2023-01-29T21:43:37.578Z,36.97
2023-01-29T21:46:11.664Z,32.83
2023-01-29T21:48:39.678Z,36.87
2023-01-29T21:51:07.517Z,39.60
2023-01-29T21:53:34.850Z,34.63
2023-01-29T21:56:03.440Z,34.63
2023-01-29T21:58:30.556Z,34.97
2023-01-29T22:01:23.024Z,35.33
2023-01-29T22:03:47.096Z,31.30
2023-01-29T22:06:14.713Z,33.10
2023-01-29T22:08:41.589Z,33.50
2023-01-29T22:11:09.110Z,34.30
2023-01-29T22:13:36.211Z,34.37
2023-01-29T22:16:03.085Z,36.17
2023-01-29T22:18:29.952Z,30.77
2023-01-29T22:20:57.539Z,32.10
2023-01-29T22:23:24.967Z,41.23
2023-01-29T22:25:51.858Z,31.47
2023-01-29T22:28:19.055Z,34.17
2023-01-29T22:30:46.196Z,34.20
2023-01-29T22:33:13.216Z,32.20
2023-01-29T22:35:40.147Z,34.50
2023-01-29T22:38:07.385Z,33.17
2023-01-29T22:40:35.095Z,30.80
2023-01-29T22:43:01.981Z,30.10
2023-01-29T22:45:28.872Z,34.00
2023-01-29T22:47:55.854Z,34.70
2023-01-29T22:50:22.722Z,38.77
2023-01-29T22:52:54.008Z,32.73
2023-01-29T22:55:21.267Z,38.83
2023-01-29T22:57:50.976Z,34.43
2023-01-29T23:00:18.731Z,34.67
2023-01-29T23:02:50.177Z,36.10
2023-01-29T23:05:18.238Z,34.33
2023-01-29T23:07:45.488Z,34.17
2023-01-29T23:10:15.162Z,31.70
2023-01-29T23:12:42.892Z,34.07
2023-01-29T23:15:10.010Z,33.50
2023-01-29T23:17:36.923Z,38.20
2023-01-29T23:20:04.005Z,40.87
2023-01-29T23:22:30.988Z,38.23
2023-01-29T23:24:57.841Z,39.87
2023-01-29T23:27:24.793Z,40.23
2023-01-29T23:29:51.665Z,41.63
2023-01-29T23:32:20.524Z,42.77
2023-01-29T23:34:47.435Z,41.17
2023-01-29T23:37:14.520Z,45.97
2023-01-29T23:39:41.428Z,37.00
2023-01-29T23:42:08.313Z,42.63
2023-01-29T23:44:35.809Z,37.80
2023-01-29T23:47:02.751Z,40.33
2023-01-29T23:49:29.709Z,43.40
2023-01-29T23:51:56.640Z,39.27
2023-01-29T23:54:23.605Z,38.40
2023-01-29T23:56:50.525Z,47.87
2023-01-29T23:59:17.996Z,38.70
